createdAt,value
2023-04-09T00:00:16.758Z,101787.72
2023-04-09T00:01:19.132Z,101779.78
2023-04-09T00:02:21.482Z,101779.78
2023-04-09T00:03:23.785Z,101786.88
2023-04-09T00:04:26.094Z,101771.88
2023-04-09T00:05:28.638Z,101780.72
2023-04-09T00:06:31.363Z,101776.28
2023-04-09T00:07:33.578Z,101781.59
2023-04-09T00:08:35.956Z,101778.03
2023-04-09T00:09:38.151Z,101776.22
2023-04-09T00:10:40.446Z,101774.50
2023-04-09T00:11:42.965Z,101775.34
2023-04-09T00:12:46.773Z,101778.91
2023-04-09T00:13:48.967Z,101777.16
2023-04-09T00:14:51.762Z,101779.78
2023-04-09T00:15:53.926Z,101780.72
2023-04-09T00:16:56.318Z,101779.78
2023-04-09T00:17:58.959Z,101776.28
2023-04-09T00:19:01.196Z,101780.66
2023-04-09T00:20:05.967Z,101781.56
2023-04-09T00:21:08.708Z,101777.16
2023-04-09T00:22:11.254Z,101779.72
2023-04-09T00:23:14.487Z,101776.16
2023-04-09T00:24:16.643Z,101778.81
2023-04-09T00:25:19.931Z,101771.75
2023-04-09T00:26:22.436Z,101777.94
2023-04-09T00:27:24.819Z,101781.44
2023-04-09T00:28:27.117Z,101778.75
2023-04-09T00:29:29.299Z,101777.03
2023-04-09T00:30:32.655Z,101781.44
2023-04-09T00:31:35.005Z,101771.78
2023-04-09T00:32:41.580Z,101781.50
2023-04-09T00:33:44.094Z,101782.34
2023-04-09T00:34:46.612Z,101777.06
2023-04-09T00:35:48.843Z,101776.97
2023-04-09T00:36:51.243Z,101782.25
2023-04-09T00:37:53.589Z,101789.28
2023-04-09T00:38:56.106Z,101782.13
2023-04-09T00:39:58.500Z,101787.41
2023-04-09T00:41:01.077Z,101782.16
2023-04-09T00:42:03.618Z,101783.91
2023-04-09T00:43:06.941Z,101783.03
2023-04-09T00:44:09.144Z,101793.31
2023-04-09T00:45:11.556Z,101784.22
2023-04-09T00:46:14.375Z,101786.03
2023-04-09T00:47:17.742Z,101788.84
2023-04-09T00:48:20.860Z,101790.69
2023-04-09T00:49:24.779Z,101786.25
2023-04-09T00:50:27.177Z,101787.03
2023-04-09T00:51:29.600Z,101786.13
2023-04-09T00:52:33.325Z,101785.19
2023-04-09T00:53:35.595Z,101788.06
2023-04-09T00:54:37.879Z,101787.06
2023-04-09T00:55:41.710Z,101784.53
2023-04-09T00:56:44.137Z,101780.81
2023-04-09T00:57:47.104Z,101783.59
2023-04-09T00:58:49.906Z,101784.56
2023-04-09T00:59:52.177Z,101775.81
2023-04-09T01:00:55.509Z,101770.63
2023-04-09T01:01:58.168Z,101781.22
2023-04-09T01:03:01.068Z,101782.09
2023-04-09T01:04:03.652Z,101776.72
2023-04-09T01:05:06.514Z,101776.78
2023-04-09T01:06:33.121Z,101780.31
2023-04-09T01:07:51.376Z,101773.22
2023-04-09T01:08:56.244Z,101777.66
2023-04-09T01:10:53.801Z,101776.72
2023-04-09T01:11:56.825Z,101783.72
2023-04-09T01:12:59.373Z,101775.75
2023-04-09T01:14:08.762Z,101783.72
2023-04-09T01:15:18.361Z,101774.91
2023-04-09T01:16:23.311Z,101779.31
2023-04-09T01:17:46.795Z,101775.00
2023-04-09T01:19:00.006Z,101775.97
2023-04-09T01:20:07.488Z,101768.91
2023-04-09T01:21:12.024Z,101767.19
2023-04-09T01:22:40.438Z,101769.75
2023-04-09T01:23:47.998Z,101775.88
2023-04-09T01:25:45.478Z,101774.13
2023-04-09T01:26:57.284Z,101778.56
2023-04-09T01:28:21.058Z,101773.25
2023-04-09T01:29:26.684Z,101773.28
2023-04-09T01:30:29.960Z,101777.69
2023-04-09T01:31:37.482Z,101769.75
2023-04-09T01:32:41.593Z,101772.38
2023-04-09T01:33:44.963Z,101773.25
2023-04-09T01:34:48.659Z,101767.94
2023-04-09T01:35:52.800Z,101778.53
2023-04-09T01:36:59.480Z,101775.06
2023-04-09T01:38:03.986Z,101775.03
2023-04-09T01:39:06.820Z,101773.22
2023-04-09T01:40:09.651Z,101771.41
2023-04-09T01:41:18.144Z,101775.78
2023-04-09T01:42:21.134Z,101774.88
2023-04-09T01:43:24.564Z,101773.94
2023-04-09T01:44:29.043Z,101774.78
2023-04-09T01:45:31.238Z,101782.75
2023-04-09T01:46:35.335Z,101775.63
2023-04-09T01:47:38.721Z,101773.88
2023-04-09T01:48:41.618Z,101765.06
2023-04-09T01:49:44.828Z,101772.94
2023-04-09T01:50:48.068Z,101772.97
2023-04-09T01:51:50.885Z,101766.72
2023-04-09T01:52:53.426Z,101770.28
2023-04-09T01:53:56.206Z,101766.72
2023-04-09T01:54:58.780Z,101764.94
2023-04-09T01:56:01.637Z,101762.34
2023-04-09T01:57:04.316Z,101765.00
2023-04-09T01:58:06.740Z,101754.41
2023-04-09T01:59:09.023Z,101759.56
2023-04-09T02:00:12.306Z,101755.13
2023-04-09T02:01:32.175Z,101759.53
2023-04-09T02:02:41.770Z,101756.03
2023-04-09T02:03:53.726Z,101761.31
2023-04-09T02:04:58.867Z,101750.72
2023-04-09T02:06:13.582Z,101763.06
2023-04-09T02:07:26.364Z,101762.13
2023-04-09T02:08:30.758Z,101763.00
2023-04-09T02:09:37.103Z,101765.69
2023-04-09T02:10:40.878Z,101769.25
2023-04-09T02:11:43.795Z,101763.94
2023-04-09T02:12:52.545Z,101766.50
2023-04-09T02:13:56.662Z,101775.38
2023-04-09T02:15:02.362Z,101771.75
2023-04-09T02:16:06.051Z,101774.25
2023-04-09T02:17:08.508Z,101779.47
2023-04-09T02:18:28.537Z,101775.91
2023-04-09T02:19:41.536Z,101774.13
2023-04-09T02:20:43.887Z,101772.44
2023-04-09T02:21:46.459Z,101768.09
2023-04-09T02:22:49.059Z,101774.25
2023-04-09T02:23:51.304Z,101775.13
2023-04-09T02:24:54.024Z,101768.13
2023-04-09T02:25:56.570Z,101763.75
2023-04-09T02:26:58.762Z,101756.84
2023-04-09T02:28:01.129Z,101760.47
2023-04-09T02:29:03.564Z,101764.06
2023-04-09T02:30:06.607Z,101757.88
2023-04-09T02:31:09.099Z,101765.81
2023-04-09T02:32:11.352Z,101763.97
2023-04-09T02:33:13.829Z,101758.66
2023-04-09T02:34:16.085Z,101761.28
2023-04-09T02:35:18.509Z,101771.88
2023-04-09T02:36:20.809Z,101768.25
2023-04-09T02:37:23.235Z,101775.22
2023-04-09T02:38:25.416Z,101785.63
2023-04-09T02:39:27.824Z,101788.09
2023-04-09T02:40:30.326Z,101790.59
2023-04-09T02:41:32.578Z,101795.81
2023-04-09T02:42:35.365Z,101801.69
2023-04-09T02:43:37.688Z,101790.34
2023-04-09T02:44:39.952Z,101791.91
2023-04-09T02:45:42.592Z,101788.28
2023-04-09T02:46:46.387Z,101783.84
2023-04-09T02:47:49.141Z,101781.19
2023-04-09T02:48:51.700Z,101782.94
2023-04-09T02:49:54.328Z,101788.22
2023-04-09T02:50:57.351Z,101787.31
2023-04-09T02:51:59.589Z,101784.56
2023-04-09T02:53:01.853Z,101781.03
2023-04-09T02:54:04.658Z,101783.63
2023-04-09T02:55:08.507Z,101782.59
2023-04-09T02:56:10.785Z,101783.53
2023-04-09T02:57:13.001Z,101779.19
2023-04-09T02:58:15.706Z,101781.75
2023-04-09T02:59:18.074Z,101785.28
2023-04-09T03:00:20.882Z,101792.31
2023-04-09T03:01:23.175Z,101795.91
2023-04-09T03:02:25.553Z,101780.91
2023-04-09T03:03:28.198Z,101784.31
2023-04-09T03:04:30.617Z,101776.19
2023-04-09T03:05:33.035Z,101781.47
2023-04-09T03:06:40.824Z,101774.38
2023-04-09T03:07:43.042Z,101779.75
2023-04-09T03:08:45.622Z,101776.31
2023-04-09T03:09:47.833Z,101779.06
2023-04-09T03:10:50.414Z,101780.72
2023-04-09T03:11:52.647Z,101782.63
2023-04-09T03:12:55.282Z,101778.25
2023-04-09T03:13:58.749Z,101777.34
2023-04-09T03:15:01.005Z,101781.84
2023-04-09T03:16:04.981Z,101774.69
2023-04-09T03:17:07.239Z,101772.06
2023-04-09T03:18:09.626Z,101774.69
2023-04-09T03:19:11.761Z,101773.88
2023-04-09T03:20:14.324Z,101777.44
2023-04-09T03:21:16.622Z,101774.78
2023-04-09T03:22:23.315Z,101777.44
2023-04-09T03:23:28.125Z,101777.44
2023-04-09T03:24:32.231Z,101778.25
2023-04-09T03:25:39.194Z,101777.38
2023-04-09T03:26:47.811Z,101774.78
2023-04-09T03:27:51.094Z,101774.81
2023-04-09T03:29:02.212Z,101774.88
2023-04-09T03:30:04.866Z,101772.16
2023-04-09T03:31:17.224Z,101769.50
2023-04-09T03:32:20.773Z,101779.19
2023-04-09T03:33:24.133Z,101773.09
2023-04-09T03:34:29.799Z,101771.53
2023-04-09T03:35:33.318Z,101773.25
2023-04-09T03:36:36.289Z,101771.47
2023-04-09T03:37:43.399Z,101769.75
2023-04-09T03:38:51.863Z,101766.25
2023-04-09T03:40:14.436Z,101762.72
2023-04-09T03:41:17.065Z,101767.22
2023-04-09T03:42:19.275Z,101768.25
2023-04-09T03:43:24.073Z,101763.00
2023-04-09T03:44:28.462Z,101757.88
2023-04-09T03:45:38.813Z,101758.78
2023-04-09T03:46:56.465Z,101766.63
2023-04-09T03:47:59.807Z,101761.41
2023-04-09T03:49:02.294Z,101764.16
2023-04-09T03:50:12.845Z,101768.59
2023-04-09T03:51:23.020Z,101766.06
2023-04-09T03:52:31.120Z,101753.81
2023-04-09T03:53:38.049Z,101753.94
2023-04-09T03:54:43.512Z,101756.56
2023-04-09T03:55:51.432Z,101764.41
2023-04-09T03:56:59.346Z,101754.66
2023-04-09T03:58:01.549Z,101754.50
2023-04-09T03:59:07.250Z,101757.94
2023-04-09T04:00:22.478Z,101754.41
2023-04-09T04:01:48.480Z,101760.69
2023-04-09T04:02:52.174Z,101761.50
2023-04-09T04:04:11.960Z,101764.94
2023-04-09T04:05:18.900Z,101757.69
2023-04-09T04:06:24.504Z,101761.16
2023-04-09T04:07:38.135Z,101768.91
2023-04-09T04:08:47.770Z,101766.25
2023-04-09T04:09:51.661Z,101771.53
2023-04-09T04:10:54.909Z,101766.25
2023-04-09T04:11:58.887Z,101775.03
2023-04-09T04:13:15.661Z,101770.69
2023-04-09T04:14:23.805Z,101771.53
2023-04-09T04:15:32.665Z,101775.88
2023-04-09T04:16:35.153Z,101773.25
2023-04-09T04:17:39.502Z,101777.81
2023-04-09T04:18:53.171Z,101775.13
2023-04-09T04:19:56.293Z,101780.41
2023-04-09T04:20:59.433Z,101777.75
2023-04-09T04:23:08.236Z,101774.31
2023-04-09T04:24:14.362Z,101781.38
2023-04-09T04:25:17.280Z,101773.53
2023-04-09T04:26:20.850Z,101770.97
2023-04-09T04:27:23.465Z,101773.72
2023-04-09T04:28:26.317Z,101776.47
2023-04-09T04:29:28.552Z,101773.97
2023-04-09T04:30:34.115Z,101775.81
2023-04-09T04:31:40.562Z,101778.53
2023-04-09T04:32:43.064Z,101768.09
2023-04-09T04:33:47.148Z,101765.47
2023-04-09T04:34:50.813Z,101767.19
2023-04-09T04:36:10.367Z,101765.38
2023-04-09T04:37:17.265Z,101773.25
2023-04-09T04:38:19.719Z,101768.91
2023-04-09T04:39:21.925Z,101774.22
2023-04-09T04:40:35.255Z,101768.00
2023-04-09T04:41:37.832Z,101769.72
2023-04-09T04:42:50.202Z,101773.06
2023-04-09T04:43:52.485Z,101760.56
2023-04-09T04:44:57.982Z,101758.66
2023-04-09T04:46:13.040Z,101770.00
2023-04-09T04:47:15.663Z,101769.03
2023-04-09T04:48:17.921Z,101762.78
2023-04-09T04:49:20.333Z,101779.47
2023-04-09T04:50:23.539Z,101770.63
2023-04-09T04:51:36.341Z,101768.78
2023-04-09T04:52:44.298Z,101771.38
2023-04-09T04:53:46.913Z,101763.50
2023-04-09T04:54:50.365Z,101772.28
2023-04-09T04:55:57.084Z,101766.13
2023-04-09T04:57:02.057Z,101770.63
2023-04-09T04:58:11.359Z,101766.16
2023-04-09T04:59:19.867Z,101770.47
2023-04-09T05:00:32.637Z,101772.25
2023-04-09T05:01:37.971Z,101768.75
2023-04-09T05:02:44.668Z,101764.31
2023-04-09T05:03:59.411Z,101773.91
2023-04-09T05:05:08.179Z,101766.94
2023-04-09T05:06:15.938Z,101770.53
2023-04-09T05:07:20.766Z,101768.00
2023-04-09T05:08:27.167Z,101766.16
2023-04-09T05:09:31.399Z,101769.81
2023-04-09T05:10:43.100Z,101768.88
2023-04-09T05:11:46.317Z,101771.59
2023-04-09T05:12:54.276Z,101767.13
2023-04-09T05:14:04.806Z,101771.47
2023-04-09T05:15:08.077Z,101772.31
2023-04-09T05:16:19.158Z,101769.63
2023-04-09T05:17:27.047Z,101767.84
2023-04-09T05:18:29.633Z,101769.56
2023-04-09T05:19:31.905Z,101766.91
2023-04-09T05:20:37.727Z,101768.63
2023-04-09T05:21:44.118Z,101763.38
2023-04-09T05:22:47.747Z,101765.03
2023-04-09T05:23:50.766Z,101769.41
2023-04-09T05:24:53.815Z,101767.56
2023-04-09T05:25:56.465Z,101772.69
2023-04-09T05:27:12.454Z,101771.00
2023-04-09T05:28:19.464Z,101770.22
2023-04-09T05:29:25.349Z,101771.25
2023-04-09T05:30:27.700Z,101773.94
2023-04-09T05:31:32.944Z,101773.25
2023-04-09T05:32:40.413Z,101783.84
2023-04-09T05:33:43.324Z,101776.88
2023-04-09T05:34:52.635Z,101786.50
2023-04-09T05:35:55.180Z,101774.13
2023-04-09T05:36:57.452Z,101783.81
2023-04-09T05:38:01.172Z,101783.84
2023-04-09T05:39:03.519Z,101788.38
2023-04-09T05:40:06.918Z,101783.22
2023-04-09T05:41:09.211Z,101790.44
2023-04-09T05:42:18.582Z,101790.44
2023-04-09T05:43:47.260Z,101781.75
2023-04-09T05:44:50.479Z,101776.59
2023-04-09T05:45:55.967Z,101778.38
2023-04-09T05:46:58.322Z,101787.22
2023-04-09T05:48:06.985Z,101790.84
2023-04-09T05:49:09.199Z,101789.19
2023-04-09T05:50:12.819Z,101794.56
2023-04-09T05:51:16.534Z,101791.97
2023-04-09T05:52:19.794Z,101796.38
2023-04-09T05:53:22.659Z,101789.44
2023-04-09T05:54:26.049Z,101799.19
2023-04-09T05:55:28.309Z,101796.53
2023-04-09T05:56:34.934Z,101794.03
2023-04-09T05:57:37.138Z,101804.69
2023-04-09T05:58:40.173Z,101799.34
2023-04-09T05:59:42.431Z,101794.13
2023-04-09T06:00:44.916Z,101787.94
2023-04-09T06:01:47.301Z,101796.78
2023-04-09T06:02:50.037Z,101794.19
2023-04-09T06:03:56.141Z,101787.16
2023-04-09T06:05:00.247Z,101790.78
2023-04-09T06:06:02.625Z,101785.44
2023-04-09T06:07:04.822Z,101792.53
2023-04-09T06:08:07.398Z,101786.38
2023-04-09T06:09:09.806Z,101789.91
2023-04-09T06:10:16.892Z,101792.59
2023-04-09T06:11:19.534Z,101794.38
2023-04-09T06:12:22.024Z,101793.50
2023-04-09T06:13:24.642Z,101792.63
2023-04-09T06:14:27.044Z,101791.72
2023-04-09T06:15:29.281Z,101792.59
2023-04-09T06:16:33.509Z,101793.56
2023-04-09T06:17:35.868Z,101799.75
2023-04-09T06:18:38.411Z,101794.50
2023-04-09T06:19:40.634Z,101791.03
2023-04-09T06:20:43.031Z,101798.13
2023-04-09T06:21:45.325Z,101789.31
2023-04-09T06:22:48.092Z,101799.06
2023-04-09T06:23:50.795Z,101799.97
2023-04-09T06:24:53.253Z,101786.75
2023-04-09T06:25:55.873Z,101804.44
2023-04-09T06:26:58.075Z,101794.72
2023-04-09T06:28:00.291Z,101797.34
2023-04-09T06:29:03.540Z,101803.53
2023-04-09T06:30:06.478Z,101804.53
2023-04-09T06:31:09.025Z,101802.81
2023-04-09T06:32:11.441Z,101806.34
2023-04-09T06:33:13.701Z,101811.66
2023-04-09T06:34:16.177Z,101809.06
2023-04-09T06:35:18.407Z,101809.09
2023-04-09T06:36:21.306Z,101808.25
2023-04-09T06:37:23.653Z,101808.19
2023-04-09T06:38:25.950Z,101811.78
2023-04-09T06:39:28.365Z,101803.84
2023-04-09T06:40:30.822Z,101797.69
2023-04-09T06:41:33.684Z,101800.38
2023-04-09T06:42:39.976Z,101802.22
2023-04-09T06:43:52.473Z,101803.19
2023-04-09T06:44:54.933Z,101798.78
2023-04-09T06:45:57.283Z,101787.28
2023-04-09T06:46:59.522Z,101791.72
2023-04-09T06:48:01.916Z,101792.63
2023-04-09T06:49:04.485Z,101798.84
2023-04-09T06:50:07.311Z,101799.81
2023-04-09T06:51:09.669Z,101804.28
2023-04-09T06:52:12.103Z,101808.66
2023-04-09T06:53:15.473Z,101799.63
2023-04-09T06:54:17.839Z,101808.44
2023-04-09T06:55:20.340Z,101802.91
2023-04-09T06:56:22.507Z,101800.97
2023-04-09T06:57:24.699Z,101803.47
2023-04-09T06:58:26.883Z,101808.75
2023-04-09T06:59:29.252Z,101804.22
2023-04-09T07:00:31.471Z,101807.81
2023-04-09T07:01:35.583Z,101806.75
2023-04-09T07:02:38.612Z,101808.47
2023-04-09T07:03:41.233Z,101809.09
2023-04-09T07:04:43.968Z,101813.34
2023-04-09T07:05:46.413Z,101819.28
2023-04-09T07:06:48.624Z,101814.47
2023-04-09T07:07:51.191Z,101818.00
2023-04-09T07:08:53.677Z,101821.22
2023-04-09T07:09:56.370Z,101822.63
2023-04-09T07:10:58.645Z,101819.34
2023-04-09T07:12:01.088Z,101828.50
2023-04-09T07:13:03.427Z,101831.06
2023-04-09T07:14:05.951Z,101827.34
2023-04-09T07:15:08.534Z,101825.53
2023-04-09T07:16:11.085Z,101821.56
2023-04-09T07:17:13.306Z,101821.28
2023-04-09T07:18:15.780Z,101824.53
2023-04-09T07:19:18.355Z,101821.81
2023-04-09T07:20:20.778Z,101818.13
2023-04-09T07:21:22.930Z,101823.75
2023-04-09T07:22:27.259Z,101819.59
2023-04-09T07:23:29.421Z,101817.09
2023-04-09T07:24:32.583Z,101818.38
2023-04-09T07:25:34.783Z,101820.41
2023-04-09T07:26:37.296Z,101808.09
2023-04-09T07:27:39.543Z,101809.25
2023-04-09T07:28:42.276Z,101807.56
2023-04-09T07:29:45.150Z,101804.94
2023-04-09T07:30:47.376Z,101815.66
2023-04-09T07:31:49.799Z,101812.78
2023-04-09T07:32:52.207Z,101816.19
2023-04-09T07:33:54.791Z,101806.56
2023-04-09T07:34:57.718Z,101813.88
2023-04-09T07:35:59.900Z,101817.56
2023-04-09T07:37:02.165Z,101816.66
2023-04-09T07:38:04.469Z,101818.50
2023-04-09T07:39:06.882Z,101820.22
2023-04-09T07:40:09.477Z,101817.66
2023-04-09T07:41:11.850Z,101821.19
2023-04-09T07:42:14.514Z,101819.47
2023-04-09T07:43:16.885Z,101828.19
2023-04-09T07:44:19.357Z,101817.50
2023-04-09T07:45:21.699Z,101817.56
2023-04-09T07:46:23.924Z,101819.31
2023-04-09T07:47:26.982Z,101815.91
2023-04-09T07:48:29.474Z,101811.47
2023-04-09T07:49:31.852Z,101811.59
2023-04-09T07:50:34.087Z,101808.06
2023-04-09T07:51:36.411Z,101817.94
2023-04-09T07:52:38.858Z,101817.28
2023-04-09T07:53:41.377Z,101808.44
2023-04-09T07:54:43.787Z,101816.50
2023-04-09T07:55:46.621Z,101810.28
2023-04-09T07:56:49.140Z,101813.06
2023-04-09T07:57:51.724Z,101811.16
2023-04-09T07:58:54.346Z,101811.28
2023-04-09T07:59:56.862Z,101818.41
2023-04-09T08:00:59.050Z,101813.84
2023-04-09T08:02:01.541Z,101807.56
2023-04-09T08:03:04.237Z,101807.50
2023-04-09T08:04:06.987Z,101810.97
2023-04-09T08:05:09.943Z,101815.38
2023-04-09T08:06:12.158Z,101820.91
2023-04-09T08:07:14.515Z,101817.25
2023-04-09T08:08:16.755Z,101819.81
2023-04-09T08:09:20.768Z,101819.75
2023-04-09T08:10:23.388Z,101815.28
2023-04-09T08:11:26.085Z,101810.75
2023-04-09T08:12:28.569Z,101807.06
2023-04-09T08:13:30.766Z,101810.56
2023-04-09T08:14:33.219Z,101807.13
2023-04-09T08:15:35.403Z,101805.34
2023-04-09T08:16:37.766Z,101817.72
2023-04-09T08:17:40.486Z,101814.91
2023-04-09T08:18:42.707Z,101813.03
2023-04-09T08:19:45.106Z,101804.84
2023-04-09T08:20:47.354Z,101812.78
2023-04-09T08:21:49.664Z,101817.91
2023-04-09T08:22:52.107Z,101809.09
2023-04-09T08:23:56.140Z,101818.69
2023-04-09T08:25:01.486Z,101806.91
2023-04-09T08:26:04.866Z,101815.50
2023-04-09T08:27:07.315Z,101812.81
2023-04-09T08:28:09.797Z,101814.03
2023-04-09T08:29:13.543Z,101817.91
2023-04-09T08:30:18.258Z,101811.78
2023-04-09T08:31:21.038Z,101818.09
2023-04-09T08:32:23.252Z,101815.34
2023-04-09T08:33:26.464Z,101820.59
2023-04-09T08:34:28.903Z,101824.00
2023-04-09T08:35:31.711Z,101814.94
2023-04-09T08:36:35.448Z,101820.28
2023-04-09T08:37:37.717Z,101821.06
2023-04-09T08:38:40.642Z,101819.06
2023-04-09T08:39:43.080Z,101826.09
2023-04-09T08:40:45.456Z,101819.81
2023-04-09T08:41:48.351Z,101817.97
2023-04-09T08:42:59.293Z,101820.97
2023-04-09T08:44:02.098Z,101813.00
2023-04-09T08:45:05.635Z,101819.13
2023-04-09T08:46:10.664Z,101814.53
2023-04-09T08:47:13.499Z,101815.31
2023-04-09T08:48:17.065Z,101811.88
2023-04-09T08:49:19.510Z,101816.47
2023-04-09T08:50:22.431Z,101811.31
2023-04-09T08:51:24.986Z,101812.28
2023-04-09T08:52:32.962Z,101811.50
2023-04-09T08:53:36.757Z,101810.50
2023-04-09T08:54:39.028Z,101803.97
2023-04-09T08:55:45.538Z,101814.44
2023-04-09T08:56:47.986Z,101816.06
2023-04-09T08:57:50.241Z,101815.84
2023-04-09T08:58:53.395Z,101808.53
2023-04-09T08:59:56.169Z,101808.78
2023-04-09T09:00:58.493Z,101814.34
2023-04-09T09:02:08.066Z,101807.25
2023-04-09T09:03:13.235Z,101801.84
2023-04-09T09:04:15.546Z,101806.38
2023-04-09T09:05:35.259Z,101807.44
2023-04-09T09:06:39.717Z,101804.81
2023-04-09T09:07:54.664Z,101808.19
2023-04-09T09:09:09.990Z,101804.81
2023-04-09T09:10:12.404Z,101801.38
2023-04-09T09:11:27.056Z,101800.53
2023-04-09T09:12:35.559Z,101808.34
2023-04-09T09:13:37.777Z,101808.13
2023-04-09T09:14:40.195Z,101814.03
2023-04-09T09:15:42.699Z,101815.50
2023-04-09T09:17:04.190Z,101810.25
2023-04-09T09:18:07.214Z,101808.16
2023-04-09T09:19:27.791Z,101810.78
2023-04-09T09:20:30.250Z,101816.66
2023-04-09T09:21:33.364Z,101812.97
2023-04-09T09:22:55.205Z,101819.00
2023-04-09T09:23:58.242Z,101819.72
2023-04-09T09:25:01.027Z,101814.16
2023-04-09T09:26:13.704Z,101825.19
2023-04-09T09:27:43.142Z,101825.00
2023-04-09T09:28:47.035Z,101813.25
2023-04-09T09:29:49.231Z,101817.63
2023-04-09T09:30:51.858Z,101817.78
2023-04-09T09:31:56.267Z,101825.78
2023-04-09T09:33:10.141Z,101821.88
2023-04-09T09:34:12.349Z,101826.38
2023-04-09T09:35:14.597Z,101819.91
2023-04-09T09:36:33.924Z,101818.28
2023-04-09T09:37:36.097Z,101814.63
2023-04-09T09:38:57.890Z,101815.41
2023-04-09T09:40:01.017Z,101813.66
2023-04-09T09:41:18.279Z,101815.03
2023-04-09T09:42:20.760Z,101804.47
2023-04-09T09:43:23.108Z,101804.66
2023-04-09T09:44:33.300Z,101811.03
2023-04-09T09:45:36.892Z,101800.09
2023-04-09T09:46:42.584Z,101796.91
2023-04-09T09:47:45.813Z,101795.50
2023-04-09T09:48:49.713Z,101795.38
2023-04-09T09:49:52.320Z,101796.97
2023-04-09T09:50:54.983Z,101790.44
2023-04-09T09:51:59.972Z,101790.44
2023-04-09T09:53:05.396Z,101792.00
2023-04-09T09:54:12.890Z,101786.59
2023-04-09T09:55:17.972Z,101794.59
2023-04-09T09:56:24.792Z,101786.41
2023-04-09T09:57:30.549Z,101792.50
2023-04-09T09:58:38.865Z,101796.84
2023-04-09T09:59:47.670Z,101791.56
2023-04-09T10:00:51.736Z,101793.41
2023-04-09T10:02:01.504Z,101794.16
2023-04-09T10:03:16.104Z,101794.63
2023-04-09T10:04:20.097Z,101792.81
2023-04-09T10:05:26.790Z,101802.50
2023-04-09T10:06:31.082Z,101796.91
2023-04-09T10:07:33.811Z,101791.41
2023-04-09T10:08:38.437Z,101782.34
2023-04-09T10:09:51.525Z,101792.16
2023-04-09T10:10:53.998Z,101792.41
2023-04-09T10:11:59.295Z,101795.38
2023-04-09T10:13:01.878Z,101793.44
2023-04-09T10:14:07.577Z,101791.50
2023-04-09T10:15:10.282Z,101789.88
2023-04-09T10:16:13.259Z,101791.03
2023-04-09T10:17:16.198Z,101786.28
2023-04-09T10:18:18.687Z,101782.09
2023-04-09T10:19:22.223Z,101778.09
2023-04-09T10:20:32.539Z,101785.09
2023-04-09T10:22:08.622Z,101788.41
2023-04-09T10:23:19.488Z,101782.56
2023-04-09T10:24:21.920Z,101786.53
2023-04-09T10:25:24.018Z,101783.66
2023-04-09T10:26:31.054Z,101774.66
2023-04-09T10:27:33.235Z,101781.06
2023-04-09T10:28:37.523Z,101781.16
2023-04-09T10:29:45.391Z,101778.94
2023-04-09T10:30:48.107Z,101775.09
2023-04-09T10:32:07.118Z,101768.66
2023-04-09T10:33:26.512Z,101772.78
2023-04-09T10:34:29.453Z,101769.63
2023-04-09T10:35:31.633Z,101761.72
2023-04-09T10:36:34.024Z,101762.81
2023-04-09T10:37:36.495Z,101764.69
2023-04-09T10:38:45.166Z,101765.78
2023-04-09T10:39:48.854Z,101771.16
2023-04-09T10:40:51.438Z,101770.22
2023-04-09T10:41:55.138Z,101763.19
2023-04-09T10:42:59.430Z,101765.03
2023-04-09T10:44:06.676Z,101763.03
2023-04-09T10:45:14.699Z,101760.47
2023-04-09T10:46:26.888Z,101766.03
2023-04-09T10:47:34.662Z,101758.19
2023-04-09T10:48:36.929Z,101765.78
2023-04-09T10:49:40.709Z,101765.63
2023-04-09T10:50:44.709Z,101767.78
2023-04-09T10:52:07.996Z,101764.59
2023-04-09T10:53:25.792Z,101769.06
2023-04-09T10:54:36.138Z,101771.81
2023-04-09T10:55:41.892Z,101764.84
2023-04-09T10:57:17.952Z,101763.25
2023-04-09T10:58:20.564Z,101758.38
2023-04-09T10:59:23.000Z,101758.09
2023-04-09T11:00:25.461Z,101754.91
2023-04-09T11:01:28.460Z,101751.00
2023-04-09T11:02:39.827Z,101748.25
2023-04-09T11:03:46.738Z,101749.53
2023-04-09T11:05:07.361Z,101750.03
2023-04-09T11:06:10.875Z,101750.72
2023-04-09T11:07:17.751Z,101759.41
2023-04-09T11:08:21.986Z,101754.38
2023-04-09T11:09:24.199Z,101751.22
2023-04-09T11:10:26.811Z,101751.06
2023-04-09T11:11:29.515Z,101750.69
2023-04-09T11:12:31.685Z,101750.06
2023-04-09T11:13:34.497Z,101746.50
2023-04-09T11:14:36.930Z,101741.56
2023-04-09T11:15:39.485Z,101739.03
2023-04-09T11:16:41.737Z,101744.09
2023-04-09T11:17:44.811Z,101746.75
2023-04-09T11:18:47.074Z,101747.75
2023-04-09T11:19:50.031Z,101747.34
2023-04-09T11:20:59.466Z,101750.31
2023-04-09T11:22:06.534Z,101742.75
2023-04-09T11:23:10.398Z,101744.47
2023-04-09T11:24:13.017Z,101745.88
2023-04-09T11:25:34.973Z,101744.53
2023-04-09T11:26:37.660Z,101743.22
2023-04-09T11:27:46.790Z,101739.97
2023-04-09T11:28:49.202Z,101736.84
2023-04-09T11:29:55.963Z,101740.94
2023-04-09T11:30:58.222Z,101738.34
2023-04-09T11:32:00.816Z,101744.91
2023-04-09T11:33:03.227Z,101749.41
2023-04-09T11:34:05.573Z,101747.97
2023-04-09T11:35:15.629Z,101746.34
2023-04-09T11:36:17.883Z,101742.63
2023-04-09T11:37:20.536Z,101749.13
2023-04-09T11:38:23.360Z,101747.19
2023-04-09T11:39:26.363Z,101750.13
2023-04-09T11:40:29.270Z,101740.38
2023-04-09T11:41:36.194Z,101745.31
2023-04-09T11:42:38.362Z,101743.34
2023-04-09T11:43:40.683Z,101742.38
2023-04-09T11:44:45.369Z,101736.13
2023-04-09T11:45:48.565Z,101739.56
2023-04-09T11:46:52.317Z,101737.72
2023-04-09T11:47:55.436Z,101736.16
2023-04-09T11:48:57.954Z,101733.94
2023-04-09T11:50:00.200Z,101732.13
2023-04-09T11:51:03.930Z,101727.41
2023-04-09T11:52:06.517Z,101730.16
2023-04-09T11:53:22.172Z,101729.56
2023-04-09T11:54:24.362Z,101731.13
2023-04-09T11:55:28.068Z,101727.75
2023-04-09T11:56:31.253Z,101730.66
2023-04-09T11:57:39.583Z,101734.41
2023-04-09T11:58:46.996Z,101738.19
2023-04-09T11:59:49.368Z,101738.63
2023-04-09T12:01:00.569Z,101740.69
2023-04-09T12:02:07.075Z,101744.00
2023-04-09T12:03:10.884Z,101738.78
2023-04-09T12:04:21.456Z,101737.59
2023-04-09T12:05:26.285Z,101737.03
2023-04-09T12:06:28.600Z,101735.94
2023-04-09T12:07:34.386Z,101738.75
2023-04-09T12:08:37.561Z,101742.31
2023-04-09T12:09:49.201Z,101742.94
2023-04-09T12:10:54.672Z,101735.44
2023-04-09T12:11:59.403Z,101736.44
2023-04-09T12:13:04.313Z,101741.41
2023-04-09T12:14:06.641Z,101731.25
2023-04-09T12:15:23.752Z,101730.31
2023-04-09T12:16:26.014Z,101729.34
2023-04-09T12:17:28.580Z,101727.38
2023-04-09T12:18:31.196Z,101725.31
2023-04-09T12:19:36.574Z,101730.19
2023-04-09T12:20:41.418Z,101726.81
2023-04-09T12:21:52.025Z,101728.16
2023-04-09T12:22:54.649Z,101726.44
2023-04-09T12:23:56.740Z,101727.34